Time;durP1;ratioP1;P1;durP2;ratioP2;P2;SDS_P1;SDS_P2;PMS_P1;PMS_P2;Temp;Humidity;BMP_temperature;BMP_pressure;BME280_temperature;BME280_humidity;BME280_pressure;Samples;Min_cycle;Max_cycle;Signal;HPM_P1;HPM_P2
2022/05/29 00:01:54;;;;;;;9.90;1.10;;;10.60;98.70;;;-146.41;100.00;57768.22;5007557;28;20491;-70
2022/05/29 00:04:21;;;;;;;7.63;1.02;;;10.50;98.60;;;-146.41;100.00;57768.22;4992674;28;20065;-70
2022/05/29 00:06:53;;;;;;;13.70;1.40;;;10.60;98.90;;;-146.41;100.00;57768.22;5006219;28;20057;-71
2022/05/29 00:09:31;;;;;;;7.80;1.75;;;10.50;98.90;;;-146.41;100.00;57768.22;4990234;28;20641;-70
2022/05/29 00:12:01;;;;;;;8.73;1.10;;;10.50;99.00;;;-146.41;100.00;57768.22;5009458;28;20068;-71
2022/05/29 00:14:29;;;;;;;12.18;1.52;;;10.50;99.70;;;-146.41;100.00;57768.22;4987859;28;20148;-71
2022/05/29 00:16:57;;;;;;;6.57;1.30;;;10.40;99.50;;;-146.41;100.00;57768.22;5005412;28;20051;-70
2022/05/29 00:19:25;;;;;;;15.00;1.40;;;10.40;99.60;;;-146.41;100.00;57768.22;5005136;28;20417;-71
2022/05/29 00:21:54;;;;;;;9.13;1.15;;;10.40;99.60;;;-146.41;100.00;57768.22;5004174;28;20590;-71
2022/05/29 00:24:22;;;;;;;10.93;1.17;;;10.30;99.80;;;-146.41;100.00;57768.22;5008553;28;20060;-71
2022/05/29 00:26:49;;;;;;;6.65;1.23;;;10.40;99.90;;;-146.41;100.00;57768.22;5006661;28;20085;-71
2022/05/29 00:29:16;;;;;;;4.82;0.73;;;10.40;99.90;;;-146.41;100.00;57768.22;5008762;28;20136;-71
2022/05/29 00:31:51;;;;;;;6.78;1.02;;;10.30;99.90;;;-146.41;100.00;57768.22;5011545;28;20045;-70
2022/05/29 00:34:18;;;;;;;9.73;1.48;;;10.40;99.90;;;-146.41;100.00;57768.22;5011912;28;20056;-70
2022/05/29 00:36:45;;;;;;;7.43;1.00;;;10.30;99.90;;;-146.41;100.00;57768.22;4994241;28;20149;-71
2022/05/29 00:39:14;;;;;;;8.45;1.20;;;10.30;99.90;;;-146.41;100.00;57768.22;5010313;28;20095;-70
2022/05/29 00:41:42;;;;;;;6.47;1.60;;;10.40;99.90;;;-146.41;100.00;57768.22;4992862;28;20119;-70
2022/05/29 00:44:28;;;;;;;11.38;1.30;;;10.40;99.90;;;-146.41;100.00;57768.22;4994759;28;20082;-70
2022/05/29 00:47:13;;;;;;;5.82;1.15;;;10.40;99.90;;;-146.41;100.00;57768.22;5008884;28;20133;-70
2022/05/29 00:49:43;;;;;;;7.43;1.17;;;10.40;99.90;;;-146.41;100.00;57768.22;5009209;28;20145;-71
2022/05/29 00:52:28;;;;;;;9.77;1.20;;;10.40;99.90;;;-146.41;100.00;57768.22;5007316;28;20124;-71
2022/05/29 00:55:11;;;;;;;6.32;0.88;;;10.40;99.90;;;-146.41;100.00;57768.22;4991015;28;20096;-70
2022/05/29 00:57:54;;;;;;;8.98;1.40;;;10.40;99.90;;;-146.41;100.00;57768.22;5009603;28;20128;-70
2022/05/29 01:00:26;;;;;;;6.35;1.42;;;10.40;99.90;;;-146.41;100.00;57768.22;4992363;28;20085;-71
2022/05/29 01:02:57;;;;;;;6.40;1.63;;;10.40;99.90;;;-146.41;100.00;57768.22;5011754;28;20081;-71
2022/05/29 01:05:28;;;;;;;9.73;1.50;;;10.40;99.90;;;-146.41;100.00;57768.22;4990739;28;20057;-70
2022/05/29 01:08:20;;;;;;;6.10;1.20;;;10.40;99.90;;;-146.41;100.00;57768.22;5011902;28;20144;-70
2022/05/29 01:10:50;;;;;;;8.63;1.23;;;10.30;99.90;;;-146.41;100.00;57768.22;5007861;28;20049;-71
2022/05/29 01:13:47;;;;;;;9.38;1.42;;;10.30;99.90;;;-146.41;100.00;57768.22;5003776;28;20795;-70
2022/05/29 01:16:36;;;;;;;6.45;1.15;;;10.20;99.90;;;-146.41;100.00;57768.22;4988954;28;20109;-71
2022/05/29 01:19:28;;;;;;;7.38;1.13;;;10.20;99.90;;;-146.41;100.00;57768.22;5009519;28;20081;-70
2022/05/29 01:22:50;;;;;;;15.82;1.40;;;10.20;99.90;;;-146.41;100.00;57768.22;5004964;28;20076;-71
2022/05/29 01:25:36;;;;;;;6.97;1.50;;;10.20;99.90;;;-146.41;100.00;57768.22;5004286;28;20380;-70
2022/05/29 01:28:36;;;;;;;8.98;1.00;;;10.20;99.90;;;-146.41;100.00;57768.22;5009363;28;20046;-70
2022/05/29 01:31:22;;;;;;;8.32;1.15;;;10.20;99.90;;;-146.41;100.00;57768.22;5011104;28;20137;-71
2022/05/29 01:34:11;;;;;;;6.93;1.27;;;10.10;99.90;;;-146.41;100.00;57768.22;5010503;28;20496;-70
2022/05/29 01:36:59;;;;;;;11.07;1.35;;;10.10;99.90;;;-146.41;100.00;57768.22;5009792;28;20090;-71
2022/05/29 01:39:36;;;;;;;6.43;1.15;;;10.10;99.90;;;-146.41;100.00;57768.22;5009819;28;20069;-71
2022/05/29 01:42:18;;;;;;;8.55;1.40;;;10.10;99.90;;;-146.41;100.00;57768.22;4994306;28;20087;-70
2022/05/29 01:45:06;;;;;;;10.00;1.40;;;10.10;99.90;;;-146.41;100.00;57768.22;4991123;28;20221;-71
2022/05/29 01:47:59;;;;;;;9.48;1.50;;;10.00;99.90;;;-146.41;100.00;57768.22;4993216;28;20096;-71
2022/05/29 01:50:37;;;;;;;6.93;1.20;;;10.00;99.90;;;-146.41;100.00;57768.22;4987157;28;20046;-71
2022/05/29 01:53:34;;;;;;;8.43;1.58;;;10.00;99.90;;;-146.41;100.00;57768.22;5001716;28;20124;-70
2022/05/29 01:56:22;;;;;;;5.65;1.35;;;10.00;99.90;;;-146.41;100.00;57768.22;5010595;28;20086;-70
2022/05/29 01:58:58;;;;;;;7.97;1.50;;;10.00;99.90;;;-146.41;100.00;57768.22;4993638;28;20049;-70
2022/05/29 02:01:31;;;;;;;11.55;1.30;;;10.00;99.90;;;-146.41;100.00;57768.22;4985203;28;20570;-70
2022/05/29 02:04:06;;;;;;;7.82;1.23;;;10.00;99.90;;;-146.41;100.00;57768.22;4989478;28;20065;-70
2022/05/29 02:09:35;;;;;;;8.35;1.77;;;10.00;99.90;;;-146.41;100.00;57768.22;4995065;28;20130;-70
2022/05/29 02:12:08;;;;;;;9.73;1.40;;;9.90;99.90;;;-146.41;100.00;57768.22;4991119;28;20152;-71
2022/05/29 02:14:40;;;;;;;6.97;1.25;;;9.90;99.90;;;-146.41;100.00;57768.22;4994551;28;20128;-71
2022/05/29 02:17:21;;;;;;;9.65;1.75;;;9.90;99.90;;;-146.41;100.00;57768.22;4990921;28;20168;-71
2022/05/29 02:20:21;;;;;;;7.82;1.52;;;9.80;99.90;;;-146.41;100.00;57768.22;4995731;28;20567;-72
2022/05/29 02:22:54;;;;;;;8.93;1.48;;;9.80;99.90;;;-146.41;100.00;57768.22;4994412;28;20141;-71
2022/05/29 02:25:24;;;;;;;8.50;1.60;;;9.70;99.90;;;-146.41;100.00;57768.22;4993328;28;21131;-70
2022/05/29 02:27:58;;;;;;;11.10;1.35;;;9.70;99.90;;;-146.41;100.00;57768.22;4994555;28;20142;-71
2022/05/29 02:30:38;;;;;;;10.45;1.52;;;9.70;99.90;;;-146.41;100.00;57768.22;5008500;28;20133;-71
2022/05/29 02:33:24;;;;;;;8.63;1.30;;;9.70;99.90;;;-146.41;100.00;57768.22;4994717;28;20124;-72
2022/05/29 02:36:19;;;;;;;8.82;1.38;;;9.70;99.90;;;-146.41;100.00;57768.22;4990315;28;20054;-71
2022/05/29 02:39:04;;;;;;;9.20;1.23;;;9.70;99.90;;;-146.41;100.00;57768.22;4986763;28;20041;-71
2022/05/29 02:42:08;;;;;;;6.95;1.17;;;9.70;99.90;;;-146.41;100.00;57768.22;5006083;28;20130;-71
2022/05/29 02:44:56;;;;;;;7.97;1.38;;;9.60;99.90;;;-146.41;100.00;57768.22;5013161;28;20069;-71
2022/05/29 02:47:31;;;;;;;8.57;1.40;;;9.60;99.90;;;-146.41;100.00;57768.22;5011932;28;20085;-71
2022/05/29 02:50:32;;;;;;;10.40;1.42;;;9.60;99.90;;;-146.41;100.00;57768.22;4991398;28;20140;-71
2022/05/29 02:53:10;;;;;;;8.15;1.40;;;9.60;99.90;;;-146.41;100.00;57768.22;5011714;28;20108;-71
2022/05/29 02:55:38;;;;;;;12.68;1.58;;;9.60;99.90;;;-146.41;100.00;57768.22;5011710;28;20124;-71
2022/05/29 02:58:18;;;;;;;8.48;1.45;;;9.60;99.90;;;-146.41;100.00;57768.22;4996362;28;20056;-70
2022/05/29 03:01:12;;;;;;;7.15;1.38;;;9.60;99.90;;;-146.41;100.00;57768.22;5015022;28;20735;-71
2022/05/29 03:04:10;;;;;;;9.18;1.80;;;9.50;99.90;;;-146.41;100.00;57768.22;5012449;28;20049;-71
2022/05/29 03:07:17;;;;;;;11.00;1.50;;;9.50;99.90;;;-146.41;100.00;57768.22;5010179;28;20088;-71
2022/05/29 03:10:06;;;;;;;10.68;1.20;;;9.40;99.90;;;-146.41;100.00;57768.22;5010509;28;20088;-70
2022/05/29 03:13:08;;;;;;;7.78;1.20;;;9.40;99.90;;;-146.41;100.00;57768.22;4995923;28;20053;-70
2022/05/29 03:16:05;;;;;;;10.25;1.70;;;9.40;99.90;;;-146.41;100.00;57768.22;4977947;28;20073;-70
2022/05/29 03:19:00;;;;;;;10.07;1.77;;;9.30;99.90;;;-146.41;100.00;57768.22;4995918;28;20052;-71
2022/05/29 03:21:48;;;;;;;12.35;1.95;;;9.30;99.90;;;-146.41;100.00;57768.22;5010024;28;20524;-71
2022/05/29 03:24:55;;;;;;;7.32;1.30;;;9.30;99.90;;;-146.41;100.00;57768.22;5016212;28;20088;-70
2022/05/29 03:27:45;;;;;;;10.05;1.70;;;9.30;99.90;;;-146.41;100.00;57768.22;4971737;28;20176;-71
2022/05/29 03:30:23;;;;;;;8.20;1.83;;;9.20;99.90;;;-146.41;100.00;57768.22;5008170;28;20137;-71
2022/05/29 03:32:56;;;;;;;13.15;1.67;;;9.10;99.90;;;-146.41;100.00;57768.22;5017098;28;20129;-70
2022/05/29 03:35:27;;;;;;;10.50;1.52;;;9.20;99.90;;;-146.41;100.00;57768.22;4997573;28;20705;-71
2022/05/29 03:37:56;;;;;;;7.10;1.55;;;9.10;99.90;;;-146.41;100.00;57768.22;5012628;28;20159;-72
2022/05/29 03:40:26;;;;;;;9.77;1.50;;;9.10;99.90;;;-146.41;100.00;57768.22;5009878;28;20144;-71
2022/05/29 03:42:55;;;;;;;10.32;1.30;;;9.00;99.90;;;-146.41;100.00;57768.22;4993928;28;20145;-71
2022/05/29 03:45:24;;;;;;;7.70;1.55;;;;;;;-146.41;100.00;57768.22;5010280;28;20084;-71
2022/05/29 03:47:52;;;;;;;13.27;1.30;;;9.10;99.90;;;-146.41;100.00;57768.22;4997152;28;20192;-71
2022/05/29 03:50:21;;;;;;;10.10;1.40;;;8.90;99.90;;;-146.41;100.00;57768.22;5012159;28;20136;-71
2022/05/29 03:52:49;;;;;;;6.88;1.42;;;8.90;99.90;;;-146.41;100.00;57768.22;5012371;28;20467;-70
2022/05/29 03:55:20;;;;;;;9.75;1.58;;;8.80;99.90;;;-146.41;100.00;57768.22;5014851;28;20165;-70
2022/05/29 03:57:48;;;;;;;5.93;1.55;;;8.80;99.90;;;-146.41;100.00;57768.22;5013974;28;20050;-72
2022/05/29 04:00:17;;;;;;;5.13;1.23;;;8.80;99.90;;;-146.41;100.00;57768.22;5011412;28;20142;-73
2022/05/29 04:02:45;;;;;;;9.98;1.70;;;8.80;99.90;;;-146.41;100.00;57768.22;5010125;28;20041;-72
2022/05/29 04:05:19;;;;;;;8.98;1.27;;;8.80;99.90;;;-146.41;100.00;57768.22;5011994;28;20379;-72
2022/05/29 04:13:21;;;;;;;12.05;1.42;;;8.80;99.90;;;-146.41;100.00;57768.22;4993060;28;20141;-72
2022/05/29 04:15:48;;;;;;;11.35;1.45;;;8.80;99.90;;;-146.41;100.00;57768.22;5010745;28;20145;-72
2022/05/29 04:18:19;;;;;;;11.25;1.30;;;8.70;99.90;;;-146.41;100.00;57768.22;5006650;28;20050;-72
2022/05/29 04:20:51;;;;;;;13.80;2.65;;;8.80;99.90;;;-146.41;100.00;57768.22;4992699;28;20066;-71
2022/05/29 04:23:19;;;;;;;9.52;1.50;;;8.70;99.90;;;-146.41;100.00;57768.22;4995431;28;20088;-72
2022/05/29 04:25:46;;;;;;;6.95;1.23;;;8.70;99.90;;;-146.41;100.00;57768.22;5010816;28;20116;-72
2022/05/29 04:28:13;;;;;;;10.30;1.30;;;8.80;99.90;;;-146.41;100.00;57768.22;5013368;28;20054;-72
2022/05/29 04:30:41;;;;;;;10.02;1.48;;;8.90;99.90;;;-146.41;100.00;57768.22;5014524;28;20064;-72
2022/05/29 04:33:08;;;;;;;5.85;1.50;;;8.90;99.90;;;-146.41;100.00;57768.22;4994238;28;20496;-71
2022/05/29 04:35:50;;;;;;;9.98;1.83;;;8.90;99.90;;;-146.41;100.00;57768.22;4994778;28;20448;-71
2022/05/29 04:38:23;;;;;;;6.00;1.45;;;8.90;99.90;;;-146.41;100.00;57768.22;5008785;28;20046;-72
2022/05/29 04:40:50;;;;;;;;;;;8.90;99.90;;;-146.41;100.00;57768.22;4996206;28;20053;-71
2022/05/29 04:43:18;;;;;;;6.85;1.13;;;9.00;99.90;;;-146.41;100.00;57768.22;5012528;28;20035;-72
2022/05/29 04:45:46;;;;;;;11.32;1.45;;;9.00;99.90;;;-146.41;100.00;57768.22;5010886;28;20061;-71
2022/05/29 04:48:16;;;;;;;7.75;1.10;;;9.00;99.90;;;-146.41;100.00;57768.22;4993984;28;20050;-72
2022/05/29 04:50:56;;;;;;;6.88;1.40;;;9.20;99.90;;;-146.41;100.00;57768.22;4990141;28;20054;-71
2022/05/29 04:53:23;;;;;;;8.30;1.67;;;9.30;99.90;;;-146.41;100.00;57768.22;5012330;28;20081;-72
2022/05/29 04:55:54;;;;;;;9.55;1.73;;;9.40;99.90;;;-146.41;100.00;57768.22;5007541;28;20152;-71
2022/05/29 04:58:22;;;;;;;8.27;1.42;;;9.50;99.90;;;-146.41;100.00;57768.22;5009353;28;20145;-72
2022/05/29 05:00:49;;;;;;;10.80;1.75;;;9.60;99.90;;;-146.41;100.00;57768.22;4991580;28;20058;-72
2022/05/29 05:03:16;;;;;;;9.55;1.48;;;9.70;99.90;;;-146.41;100.00;57768.22;5009944;28;20107;-72
2022/05/29 05:05:46;;;;;;;11.75;1.88;;;9.80;99.90;;;-146.41;100.00;57768.22;5011932;28;20057;-72
2022/05/29 05:08:13;;;;;;;10.38;1.77;;;9.70;99.90;;;-146.41;100.00;57768.22;5010059;28;20080;-72
2022/05/29 05:10:41;;;;;;;10.15;1.73;;;9.70;99.90;;;-146.41;100.00;57768.22;5007429;28;20100;-71
2022/05/29 05:13:09;;;;;;;13.15;1.58;;;9.70;99.90;;;-146.41;100.00;57768.22;5007331;28;20619;-71
2022/05/29 05:15:36;;;;;;;6.10;1.40;;;9.70;99.90;;;-146.41;100.00;57768.22;5007705;28;20133;-71
2022/05/29 05:18:05;;;;;;;8.68;1.55;;;9.80;99.90;;;-146.41;100.00;57768.22;4988159;28;20165;-71
2022/05/29 05:20:33;;;;;;;8.73;1.73;;;9.70;99.90;;;-146.41;100.00;57768.22;5012501;28;20125;-72
2022/05/29 05:23:00;;;;;;;7.28;1.20;;;9.60;99.90;;;-146.41;100.00;57768.22;5008290;28;20141;-72
2022/05/29 05:25:27;;;;;;;11.65;1.42;;;9.60;99.90;;;-146.41;100.00;57768.22;4990936;28;20125;-71
2022/05/29 05:27:54;;;;;;;6.70;1.40;;;9.60;99.90;;;-146.41;100.00;57768.22;5011734;28;20077;-72
2022/05/29 05:30:21;;;;;;;11.10;1.63;;;9.60;99.90;;;-146.41;100.00;57768.22;4997535;28;21001;-71
2022/05/29 05:32:48;;;;;;;9.23;1.55;;;9.70;99.90;;;-146.41;100.00;57768.22;5013396;28;20156;-71
2022/05/29 05:35:16;;;;;;;10.05;1.30;;;9.70;99.90;;;-146.41;100.00;57768.22;5007992;28;20486;-72
2022/05/29 05:37:44;;;;;;;9.95;1.33;;;9.60;99.90;;;-146.41;100.00;57768.22;5010439;28;20073;-72
2022/05/29 05:40:14;;;;;;;7.65;1.48;;;9.70;99.90;;;-146.41;100.00;57768.22;5011002;28;20106;-72
2022/05/29 05:42:41;;;;;;;4.13;1.00;;;9.90;99.90;;;-146.41;100.00;57768.22;4997690;28;20488;-72
2022/05/29 05:45:11;;;;;;;13.32;1.40;;;10.10;99.90;;;-146.41;100.00;57768.22;5011986;28;20088;-72
2022/05/29 05:47:38;;;;;;;9.88;1.30;;;10.40;99.90;;;-146.41;100.00;57768.22;4990945;28;20709;-73
2022/05/29 05:50:09;;;;;;;9.00;1.40;;;10.50;99.90;;;-146.41;100.00;57768.22;5009726;28;20074;-73
2022/05/29 05:52:38;;;;;;;7.30;1.20;;;10.50;99.90;;;-146.41;100.00;57768.22;4994150;28;20052;-72
2022/05/29 05:55:10;;;;;;;9.57;1.10;;;10.50;99.90;;;-146.41;100.00;57768.22;4993482;28;20046;-72
2022/05/29 05:57:39;;;;;;;11.02;1.30;;;10.80;99.90;;;-146.41;100.00;57768.22;4993548;28;20042;-72
2022/05/29 06:00:12;;;;;;;7.90;1.25;;;10.90;99.90;;;-146.41;100.00;57768.22;4992361;28;20088;-72
2022/05/29 06:02:43;;;;;;;9.40;1.67;;;11.10;99.90;;;-146.41;100.00;57768.22;4993011;28;20042;-71
2022/05/29 06:05:12;;;;;;;10.95;1.38;;;11.20;99.90;;;-146.41;100.00;57768.22;5011941;28;20553;-71
2022/05/29 06:07:39;;;;;;;8.52;1.38;;;11.30;99.90;;;-146.41;100.00;57768.22;5013147;28;20144;-71
2022/05/29 06:10:08;;;;;;;9.02;1.55;;;11.30;99.90;;;-146.41;100.00;57768.22;4992508;28;20241;-71
2022/05/29 06:12:36;;;;;;;7.53;1.52;;;11.00;99.90;;;-146.41;100.00;57768.22;5009283;28;20140;-71
2022/05/29 06:15:06;;;;;;;9.63;1.40;;;11.20;99.90;;;-146.41;100.00;57768.22;5009341;28;20073;-71
2022/05/29 06:17:33;;;;;;;10.77;1.20;;;11.30;99.90;;;-146.41;100.00;57768.22;5005672;28;20498;-71
2022/05/29 06:20:01;;;;;;;7.57;1.08;;;11.10;99.90;;;-146.41;100.00;57768.22;5006940;28;20080;-72
2022/05/29 06:22:28;;;;;;;9.43;1.48;;;11.20;99.90;;;-146.41;100.00;57768.22;4990157;28;20660;-71
2022/05/29 06:24:55;;;;;;;8.75;1.77;;;11.30;99.90;;;-146.41;100.00;57768.22;5014543;28;20081;-72
2022/05/29 06:27:22;;;;;;;13.25;1.60;;;11.50;99.90;;;-146.41;100.00;57768.22;5011073;28;20045;-71
2022/05/29 06:29:49;;;;;;;10.70;1.40;;;11.20;99.90;;;-146.41;100.00;57768.22;5013599;28;20145;-71
2022/05/29 06:32:16;;;;;;;9.00;1.20;;;11.50;99.90;;;-146.41;100.00;57768.22;5015092;28;20074;-71
2022/05/29 06:34:43;;;;;;;11.80;1.55;;;11.60;99.90;;;-146.41;100.00;57768.22;5015469;28;20065;-71
2022/05/29 06:37:10;;;;;;;11.70;1.42;;;11.70;99.90;;;-146.41;100.00;57768.22;5015122;28;20108;-71
2022/05/29 06:39:38;;;;;;;12.27;1.50;;;11.80;99.90;;;-146.41;100.00;57768.22;5016337;28;20144;-71
2022/05/29 06:42:06;;;;;;;10.48;1.33;;;11.80;99.90;;;-146.41;100.00;57768.22;5013404;28;20045;-71
2022/05/29 06:44:36;;;;;;;10.40;1.52;;;11.40;99.90;;;-146.41;100.00;57768.22;5014530;28;20042;-71
2022/05/29 06:47:07;;;;;;;7.85;1.08;;;11.40;99.90;;;-146.41;100.00;57768.22;5000689;28;20053;-72
2022/05/29 06:49:34;;;;;;;6.07;1.02;;;11.50;99.90;;;-146.41;100.00;57768.22;5004372;28;20060;-71
2022/05/29 06:52:09;;;;;;;7.05;1.20;;;11.60;99.90;;;-146.41;100.00;57768.22;5014321;28;20066;-72
2022/05/29 06:54:37;;;;;;;9.82;1.10;;;11.70;99.90;;;-146.41;100.00;57768.22;5008277;28;20069;-71
2022/05/29 06:57:07;;;;;;;13.07;1.60;;;11.70;99.90;;;-146.41;100.00;57768.22;4987610;28;20096;-72
2022/05/29 07:08:20;;;;;;;10.07;1.27;;;12.00;99.90;;;-146.41;100.00;57768.22;4983187;28;20084;-71
2022/05/29 07:10:47;;;;;;;8.32;1.25;;;12.10;99.90;;;-146.41;100.00;57768.22;4995583;28;20216;-71
2022/05/29 07:13:14;;;;;;;5.70;1.10;;;12.30;99.90;;;-146.41;100.00;57768.22;5011962;28;20073;-71
2022/05/29 07:15:41;;;;;;;8.35;1.20;;;12.30;99.90;;;-146.41;100.00;57768.22;4998850;28;20048;-71
2022/05/29 07:18:08;;;;;;;11.43;1.60;;;12.40;99.90;;;-146.41;100.00;57768.22;5011476;28;20078;-72
2022/05/29 07:20:36;;;;;;;10.45;1.48;;;;;;;-146.41;100.00;57768.22;5012848;28;20136;-72
2022/05/29 07:23:03;;;;;;;8.57;1.25;;;13.10;99.90;;;-146.41;100.00;57768.22;5019977;28;20104;-72
2022/05/29 07:25:30;;;;;;;8.68;1.50;;;13.00;99.90;;;-146.41;100.00;57768.22;5015814;28;20137;-72
2022/05/29 07:27:58;;;;;;;6.65;1.10;;;;;;;-146.41;100.00;57768.22;5011513;28;20050;-72
2022/05/29 07:30:25;;;;;;;5.82;1.10;;;13.60;99.90;;;-146.41;100.00;57768.22;5016269;28;20042;-71
2022/05/29 07:32:52;;;;;;;10.57;1.85;;;13.50;99.90;;;-146.41;100.00;57768.22;5017088;28;20129;-71
2022/05/29 07:35:19;;;;;;;11.15;1.20;;;13.50;99.90;;;-146.41;100.00;57768.22;5015557;28;20086;-72
2022/05/29 07:37:45;;;;;;;7.57;1.23;;;13.60;99.90;;;-146.41;100.00;57768.22;5012034;28;20133;-71
2022/05/29 07:40:13;;;;;;;7.75;1.45;;;;;;;-146.41;100.00;57768.22;5012249;28;20149;-71
2022/05/29 07:45:25;;;;;;;12.80;1.40;;;13.70;99.90;;;-146.41;100.00;57768.22;5012188;28;20054;-71
2022/05/29 07:47:52;;;;;;;6.53;1.17;;;13.40;99.90;;;-146.41;100.00;57768.22;5013837;28;20140;-71
2022/05/29 07:50:21;;;;;;;7.00;1.23;;;13.30;99.90;;;-146.41;100.00;57768.22;5014335;28;20128;-71
2022/05/29 07:52:51;;;;;;;7.88;0.93;;;13.10;99.90;;;-146.41;100.00;57768.22;5012359;28;20115;-71
2022/05/29 07:55:19;;;;;;;12.82;1.90;;;13.00;99.90;;;-146.41;100.00;57768.22;5014777;28;20089;-71
2022/05/29 07:57:46;;;;;;;5.22;1.15;;;13.10;99.90;;;-146.41;100.00;57768.22;5007369;28;20049;-72
2022/05/29 08:00:19;;;;;;;6.50;1.00;;;13.50;99.90;;;-146.41;100.00;57768.22;4999566;28;20076;-72
2022/05/29 08:02:46;;;;;;;8.47;1.27;;;13.80;99.90;;;-146.41;100.00;57768.22;5012840;28;20045;-72
2022/05/29 08:05:16;;;;;;;9.15;1.27;;;13.60;99.90;;;-146.41;100.00;57768.22;4996560;28;20678;-72
2022/05/29 08:07:45;;;;;;;11.25;1.58;;;13.70;99.90;;;-146.41;100.00;57768.22;5014172;28;20452;-72
2022/05/29 08:10:15;;;;;;;8.77;0.80;;;14.30;99.90;;;-146.41;100.00;57768.22;5000750;28;20107;-71
2022/05/29 08:12:42;;;;;;;10.57;0.90;;;14.50;99.90;;;-146.41;100.00;57768.22;5010215;28;20566;-71
2022/05/29 08:15:10;;;;;;;8.27;1.40;;;14.30;99.90;;;-146.41;100.00;57768.22;5012410;28;20413;-72
2022/05/29 08:17:39;;;;;;;9.60;1.13;;;14.00;99.90;;;-146.41;100.00;57768.22;5016036;28;20393;-71
2022/05/29 08:20:08;;;;;;;7.85;1.00;;;13.90;99.90;;;-146.41;100.00;57768.22;4997566;28;20078;-71
2022/05/29 08:22:35;;;;;;;5.22;1.20;;;13.70;99.90;;;-146.41;100.00;57768.22;5011779;28;20089;-71
2022/05/29 08:30:38;;;;;;;7.93;0.95;;;;;;;-146.41;100.00;57768.22;5006927;28;20571;-72
2022/05/29 08:33:18;;;;;;;7.28;1.02;;;13.50;99.90;;;-146.41;100.00;57768.22;5006702;28;20057;-71
2022/05/29 08:36:07;;;;;;;7.72;1.23;;;13.60;99.90;;;-146.41;100.00;57768.22;5012198;28;20132;-72
2022/05/29 08:38:44;;;;;;;10.05;1.23;;;13.90;99.90;;;-146.41;100.00;57768.22;5012194;28;20763;-72
2022/05/29 08:41:21;;;;;;;7.22;1.10;;;;;;;-146.41;100.00;57768.22;5013635;28;20148;-71
2022/05/29 08:43:54;;;;;;;7.60;1.17;;;14.90;99.90;;;-146.41;100.00;57768.22;5013150;28;20408;-71
2022/05/29 08:46:30;;;;;;;7.68;1.00;;;15.40;99.90;;;-146.41;100.00;57768.22;5017310;28;20455;-71
2022/05/29 08:48:58;;;;;;;7.85;1.35;;;15.10;99.90;;;-146.41;100.00;57768.22;4997724;28;20053;-71
2022/05/29 08:52:15;;;;;;;7.25;1.10;;;14.90;99.90;;;-146.41;100.00;57768.22;4995132;28;20129;-71
2022/05/29 08:54:57;;;;;;;4.05;0.90;;;14.50;99.90;;;-146.41;100.00;57768.22;5016745;28;20137;-72
2022/05/29 08:57:43;;;;;;;7.70;0.90;;;14.00;99.90;;;-146.41;100.00;57768.22;4998699;28;20046;-71
2022/05/29 09:00:30;;;;;;;6.35;0.88;;;13.90;99.90;;;-146.41;100.00;57768.22;5013814;28;20204;-71
2022/05/29 09:03:25;;;;;;;4.78;0.75;;;13.90;99.90;;;-146.41;100.00;57768.22;4992857;28;20073;-71
2022/05/29 09:06:06;;;;;;;4.97;1.02;;;14.00;99.90;;;-146.41;100.00;57768.22;5011498;28;20062;-71
2022/05/29 09:08:45;;;;;;;6.88;0.95;;;14.50;99.90;;;-146.41;100.00;57768.22;5010866;28;20106;-71
2022/05/29 09:11:42;;;;;;;6.25;1.20;;;14.90;99.90;;;-146.41;100.00;57768.22;5015811;28;20050;-71
2022/05/29 09:14:37;;;;;;;7.40;1.02;;;14.60;99.90;;;-146.41;100.00;57768.22;5008059;28;20145;-72
2022/05/29 09:17:13;;;;;;;5.35;0.90;;;14.30;99.90;;;-146.41;100.00;57768.22;5000651;28;20125;-71
2022/05/29 09:19:55;;;;;;;5.43;0.90;;;14.50;99.60;;;-146.41;100.00;57768.22;5010374;28;20712;-71
2022/05/29 09:22:25;;;;;;;9.75;1.30;;;14.30;99.90;;;-146.41;100.00;57768.22;4985786;28;20083;-71
2022/05/29 09:25:14;;;;;;;8.07;1.00;;;14.30;99.30;;;-146.41;100.00;57768.22;4985102;28;20124;-72
2022/05/29 09:27:47;;;;;;;6.00;0.82;;;14.20;99.10;;;-146.41;100.00;57768.22;4989539;28;20061;-71
2022/05/29 09:30:16;;;;;;;3.15;0.75;;;14.40;99.10;;;-146.41;100.00;57768.22;5015097;28;20054;-71
2022/05/29 09:32:51;;;;;;;5.70;0.82;;;15.20;98.90;;;-146.41;100.00;57768.22;5013269;28;20080;-71
2022/05/29 09:35:26;;;;;;;3.95;0.85;;;16.00;97.00;;;-146.41;100.00;57768.22;5012144;28;20123;-72
2022/05/29 09:38:08;;;;;;;5.43;0.98;;;;;;;-146.41;100.00;57768.22;5006156;28;20062;-71
2022/05/29 09:40:58;;;;;;;7.05;0.80;;;17.40;95.40;;;-146.41;100.00;57768.22;4998461;28;20132;-71
2022/05/29 09:43:28;;;;;;;5.15;0.90;;;18.00;93.70;;;-146.41;100.00;57768.22;5014891;28;20052;-72
2022/05/29 09:46:17;;;;;;;5.43;0.60;;;17.60;92.10;;;-146.41;100.00;57768.22;5003563;28;20049;-71
2022/05/29 09:52:18;;;;;;;4.32;0.80;;;18.20;91.30;;;-146.41;100.00;57768.22;5012954;28;20073;-71
2022/05/29 09:54:55;;;;;;;7.32;0.95;;;18.70;91.40;;;-146.41;100.00;57768.22;5001148;28;20133;-71
2022/05/29 09:57:41;;;;;;;4.38;0.60;;;;;;;-146.41;100.00;57768.22;4986873;28;20061;-72
2022/05/29 10:00:37;;;;;;;6.47;1.00;;;19.60;99.90;;;-146.41;100.00;57768.22;5009779;28;20140;-72
2022/05/29 10:03:07;;;;;;;5.72;0.90;;;19.70;97.30;;;-146.41;100.00;57768.22;5006101;28;20191;-72
2022/05/29 10:05:40;;;;;;;3.70;0.70;;;19.30;89.60;;;-146.41;100.00;57768.22;5010962;28;20068;-72
2022/05/29 10:08:30;;;;;;;2.85;0.80;;;19.90;87.50;;;-146.41;100.00;57768.22;4990875;28;20085;-72
2022/05/29 10:11:27;;;;;;;5.07;0.70;;;20.10;87.00;;;-146.41;100.00;57768.22;5005449;28;20563;-72
2022/05/29 10:13:55;;;;;;;6.90;0.80;;;19.50;86.40;;;-146.41;100.00;57768.22;5008301;28;20092;-71
2022/05/29 10:16:33;;;;;;;7.70;0.85;;;19.30;86.40;;;-146.41;100.00;57768.22;5010811;28;20456;-71
2022/05/29 10:19:02;;;;;;;4.43;0.80;;;18.90;84.00;;;-146.41;100.00;57768.22;5006542;28;20050;-72
2022/05/29 10:21:41;;;;;;;3.15;0.52;;;19.30;83.30;;;-146.41;100.00;57768.22;5009425;28;20132;-72
2022/05/29 10:24:36;;;;;;;6.07;0.60;;;20.00;82.30;;;-146.41;100.00;57768.22;4992713;28;21762;-72
2022/05/29 10:27:11;;;;;;;3.65;0.60;;;19.80;80.50;;;-146.41;100.00;57768.22;4992836;28;20141;-71
2022/05/29 10:29:40;;;;;;;3.38;0.60;;;19.60;80.30;;;-146.41;100.00;57768.22;4989277;28;20129;-72
2022/05/29 10:32:22;;;;;;;2.67;0.65;;;20.00;80.40;;;-146.41;100.00;57768.22;4991842;28;20149;-72
2022/05/29 10:34:50;;;;;;;2.97;0.60;;;19.80;83.10;;;-146.41;100.00;57768.22;4989616;28;20116;-72
2022/05/29 10:37:38;;;;;;;3.40;0.60;;;20.00;82.00;;;-146.41;100.00;57768.22;5008481;28;20064;-71
2022/05/29 10:40:33;;;;;;;3.70;0.60;;;19.80;81.90;;;-146.41;100.00;57768.22;4988603;28;20450;-72
2022/05/29 10:43:04;;;;;;;1.95;0.60;;;19.00;81.40;;;-146.41;100.00;57768.22;4990814;28;20515;-72
2022/05/29 10:45:52;;;;;;;3.05;0.75;;;18.70;83.10;;;-146.41;100.00;57768.22;5007433;28;20128;-72
2022/05/29 10:48:56;;;;;;;3.53;0.50;;;18.70;82.90;;;-146.41;100.00;57768.22;5000664;28;20053;-71
2022/05/29 10:51:41;;;;;;;6.68;0.80;;;18.10;83.50;;;-146.41;100.00;57768.22;5006456;28;20159;-71
2022/05/29 10:54:45;;;;;;;3.05;0.63;;;17.50;84.20;;;-146.41;100.00;57768.22;5003549;28;20117;-72
2022/05/29 10:57:52;;;;;;;5.00;0.90;;;17.40;85.50;;;-146.41;100.00;57768.22;4967670;28;20583;-72
2022/05/29 11:00:45;;;;;;;3.03;0.60;;;17.80;82.40;;;-146.41;100.00;57768.22;5006094;28;20527;-71
2022/05/29 11:03:49;;;;;;;;;;;18.50;76.70;;;-146.41;100.00;57768.22;5004811;28;20065;-70
2022/05/29 11:06:38;;;;;;;3.28;0.80;;;19.30;74.80;;;-146.41;100.00;57768.22;5007989;28;20344;-71
2022/05/29 11:09:34;;;;;;;2.55;0.70;;;19.30;77.10;;;-146.41;100.00;57768.22;5008691;28;20169;-72